Time;durP1;ratioP1;P1;durP2;ratioP2;P2;SDS_P1;SDS_P2;PMS_P1;PMS_P2;Temp;Humidity;BMP_temperature;BMP_pressure;BME280_temperature;BME280_humidity;BME280_pressure;Samples;Min_cycle;Max_cycle;Signal;HPM_P1;HPM_P2
2023/03/24 00:00:31;;;;;;;4.53;2.70;;;;;;;13.36;87.26;154792.53;5087669;28;20447;-78
2023/03/24 00:03:00;;;;;;;3.77;2.90;;;;;;;13.39;90.03;154800.31;5090989;28;20456;-78
2023/03/24 00:05:27;;;;;;;3.13;2.67;;;;;;;13.34;87.75;154786.03;5080947;28;20457;-78
2023/03/24 00:07:54;;;;;;;3.40;3.00;;;;;;;13.37;90.25;154795.09;5079147;28;20538;-78
2023/03/24 00:10:21;;;;;;;3.80;2.83;;;;;;;13.35;88.85;154788.59;5089528;28;20476;-78
2023/03/24 00:12:48;;;;;;;3.60;2.73;;;;;;;13.37;89.50;154793.78;5087434;28;20445;-78
2023/03/24 00:15:18;;;;;;;3.00;2.70;;;;;;;13.38;90.45;154797.69;5099043;28;20475;-78
2023/03/24 00:17:49;;;;;;;3.50;3.00;;;;;;;13.38;92.46;154796.38;5106506;28;20444;-78
2023/03/24 00:20:17;;;;;;;3.27;2.97;;;;;;;13.28;89.35;154771.75;5084076;28;20459;-77
2023/03/24 00:22:48;;;;;;;6.03;2.80;;;;;;;13.31;87.85;154778.25;5080776;28;20461;-78
2023/03/24 00:25:16;;;;;;;3.47;3.00;;;;;;;13.34;87.78;154786.03;5084745;28;20445;-78
2023/03/24 00:27:44;;;;;;;2.67;2.47;;;;;;;13.33;87.35;154784.72;5081825;28;20448;-78
2023/03/24 00:30:12;;;;;;;4.17;2.73;;;;;;;13.34;89.30;154786.03;5082313;28;20452;-78
2023/03/24 00:32:39;;;;;;;2.80;2.50;;;;;;;13.33;86.11;154783.44;5076205;28;20437;-78
2023/03/24 00:35:12;;;;;;;2.97;2.57;;;;;;;13.36;84.50;154792.53;5087569;28;20869;-78
2023/03/24 00:37:40;;;;;;;3.33;2.87;;;;;;;13.38;84.07;154797.69;5078619;28;20518;-78
2023/03/24 00:40:11;;;;;;;4.90;3.30;;;;;;;13.35;84.54;154789.91;5076094;28;20448;-78
2023/03/24 00:42:38;;;;;;;3.77;2.70;;;;;;;13.33;83.35;154783.44;5091572;28;20460;-78
2023/03/24 00:45:07;;;;;;;3.30;2.87;;;;;;;13.32;83.36;154780.81;5081768;28;20453;-78
2023/03/24 00:47:36;;;;;;;3.23;2.93;;;;;;;13.28;82.88;154771.75;5100151;28;20494;-78
2023/03/24 00:50:05;;;;;;;3.90;2.60;;;;;;;13.26;82.72;154766.53;5061064;28;20475;-78
2023/03/24 00:52:33;;;;;;;3.67;3.10;;;;;;;13.25;84.50;154763.97;5070996;28;20442;-78
2023/03/24 00:55:02;;;;;;;3.50;2.70;;;;;;;13.27;87.84;154767.84;5090304;28;20527;-78
2023/03/24 00:57:33;;;;;;;3.00;2.73;;;;;;;13.19;83.45;154747.06;5085019;28;20547;-78
2023/03/24 01:00:11;;;;;;;3.23;2.87;;;;;;;13.19;82.79;154747.06;5085009;28;20551;-77
2023/03/24 01:02:38;;;;;;;3.27;2.93;;;;;;;13.17;81.54;154743.22;5067891;28;20957;-77
2023/03/24 01:05:06;;;;;;;3.10;2.70;;;;;;;13.17;83.62;154743.22;5080820;28;20490;-77
2023/03/24 01:07:34;;;;;;;5.40;2.90;;;;;;;13.13;83.84;154732.78;5082389;28;20468;-78
2023/03/24 01:10:01;;;;;;;3.03;2.60;;;;;;;13.12;85.51;154730.22;5101076;28;20453;-77
2023/03/24 01:12:30;;;;;;;3.10;2.80;;;;;;;13.08;81.88;154719.81;5082212;28;20430;-77
2023/03/24 01:14:58;;;;;;;3.20;2.77;;;;;;;13.07;81.56;154717.25;5075624;28;20453;-77
2023/03/24 01:17:25;;;;;;;3.20;2.90;;;;;;;13.07;81.76;154717.25;5083542;28;20445;-76
2023/03/24 01:19:52;;;;;;;3.00;2.80;;;;;;;13.05;82.56;154712.00;5104837;28;20517;-76
2023/03/24 01:22:20;;;;;;;3.30;3.00;;;;;;;13.03;83.64;154706.81;5095549;28;20462;-76
2023/03/24 01:24:49;;;;;;;3.80;3.27;;;;;;;12.97;83.70;154691.28;5087540;28;20475;-76
2023/03/24 01:27:15;;;;;;;3.30;2.87;;;;;;;12.92;84.22;154677.00;5105315;28;20450;-76
2023/03/24 01:29:42;;;;;;;3.23;2.70;;;;;;;12.89;84.17;154670.53;5101893;28;20460;-77
2023/03/24 01:32:10;;;;;;;4.73;3.00;;;;;;;12.84;84.95;154657.50;5082709;28;20459;-76
2023/03/24 01:34:37;;;;;;;3.87;3.10;;;;;;;12.81;88.52;154649.75;5082923;28;20460;-76
2023/03/24 01:37:04;;;;;;;3.53;3.27;;;;;;;12.79;92.33;154644.53;5083974;28;20914;-77
2023/03/24 01:39:32;;;;;;;3.10;2.80;;;;;;;12.73;91.66;154629.00;5091073;28;20464;-76
2023/03/24 01:42:00;;;;;;;3.17;2.87;;;;;;;12.68;91.05;154616.03;5066532;28;20809;-77
2023/03/24 01:44:30;;;;;;;3.10;2.80;;;;;;;12.71;94.24;154623.78;5063023;28;20499;-76
2023/03/24 01:46:58;;;;;;;5.27;3.67;;;;;;;12.64;89.46;154605.66;5095755;28;20424;-76
2023/03/24 01:49:27;;;;;;;3.07;2.40;;;;;;;12.68;90.31;154616.03;5105971;28;20441;-77
2023/03/24 01:51:57;;;;;;;3.70;2.50;;;;;;;12.68;86.90;154617.31;5083787;28;20441;-76
2023/03/24 01:54:26;;;;;;;2.80;2.50;;;;;;;12.69;88.07;154618.63;5093410;28;20433;-76
2023/03/24 01:56:58;;;;;;;3.57;2.77;;;;;;;12.69;86.17;154619.91;5074752;28;20433;-76
2023/03/24 01:59:30;;;;;;;5.40;2.80;;;;;;;12.72;88.68;154626.41;5087478;28;20436;-76
2023/03/24 02:02:20;;;;;;;3.70;2.67;;;;;;;12.66;86.35;154610.81;5087907;28;20529;-77
2023/03/24 02:04:59;;;;;;;3.20;2.67;;;;;;;12.68;89.58;154617.31;5076166;28;20460;-76
2023/03/24 02:07:48;;;;;;;3.30;2.57;;;;;;;12.67;90.08;154613.44;5078085;28;20527;-77
2023/03/24 02:10:18;;;;;;;4.27;2.30;;;;;;;12.59;88.40;154594.00;5081302;28;20441;-76
2023/03/24 02:12:46;;;;;;;5.13;3.00;;;;;;;12.60;88.78;154595.28;5083982;28;20469;-76
2023/03/24 02:15:18;;;;;;;3.03;2.73;;;;;;;12.61;91.14;154597.84;5073222;28;20544;-76
2023/03/24 02:17:57;;;;;;;3.20;2.90;;;;;;;12.62;91.72;154600.47;5072499;28;20441;-76
2023/03/24 02:20:47;;;;;;;3.73;3.13;;;;;;;12.59;90.91;154592.69;5083069;28;20461;-76
2023/03/24 02:23:31;;;;;;;3.27;2.97;;;;;;;12.57;89.09;154587.50;5066979;28;20564;-76
2023/03/24 02:26:27;;;;;;;3.30;2.57;;;;;;;12.61;89.48;154597.84;5087572;28;20452;-76
2023/03/24 02:29:02;;;;;;;2.97;2.60;;;;;;;12.65;89.27;154608.25;5075470;28;20445;-76
2023/03/24 02:31:46;;;;;;;3.13;2.40;;;;;;;12.66;86.10;154610.81;5091897;28;20539;-77
2023/03/24 02:34:41;;;;;;;5.50;2.90;;;;;;;12.72;86.71;154626.41;5079254;28;20518;-77
2023/03/24 02:37:29;;;;;;;3.17;2.63;;;;;;;12.77;88.46;154639.38;5082792;28;20481;-76
2023/03/24 02:40:15;;;;;;;2.90;2.70;;;;;;;12.76;89.36;154636.81;5072212;28;20463;-76
2023/03/24 02:42:49;;;;;;;2.30;2.10;;;;;;;12.75;84.39;154635.50;5076942;28;20470;-76
2023/03/24 02:45:25;;;;;;;4.07;2.20;;;;;;;12.83;86.45;154656.25;5062502;28;20465;-76
2023/03/24 02:48:01;;;;;;;3.30;2.60;;;;;;;12.84;85.84;154657.50;5087585;28;20443;-76
2023/03/24 02:50:29;;;;;;;2.70;2.27;;;;;;;12.87;88.59;154664.03;5083925;27;20467;-77
2023/03/24 02:53:02;;;;;;;2.10;1.90;;;;;;;12.84;87.07;154657.50;5071060;28;20445;-76
2023/03/24 02:55:35;;;;;;;2.60;2.20;;;;;;;12.90;85.00;154671.78;5075774;28;20459;-77
2023/03/24 02:58:04;;;;;;;2.50;2.10;;;;;;;12.96;84.90;154687.34;5081205;28;20453;-76
2023/03/24 03:00:46;;;;;;;2.80;2.20;;;;;;;12.99;84.40;154696.47;5057472;28;20446;-76
2023/03/24 03:03:37;;;;;;;2.77;2.57;;;;;;;13.02;85.55;154704.25;5083307;28;20477;-78
2023/03/24 03:06:08;;;;;;;4.20;2.50;;;;;;;13.06;84.81;154714.59;5064695;28;20445;-77
2023/03/24 03:08:36;;;;;;;2.70;2.33;;;;;;;13.04;84.34;154709.44;5064951;28;20922;-76
2023/03/24 03:11:07;;;;;;;2.90;2.27;;;;;;;13.07;86.50;154715.97;5058668;28;20463;-76
2023/03/24 03:13:37;;;;;;;2.77;2.43;;;;;;;13.05;83.05;154710.72;5047980;28;20959;-77
2023/03/24 03:16:08;;;;;;;2.60;2.13;;;;;;;13.08;86.24;154718.56;5072888;28;20441;-76
2023/03/24 03:18:40;;;;;;;2.90;2.30;;;;;;;13.10;86.78;154725.06;5064456;28;20446;-76
2023/03/24 03:21:11;;;;;;;2.83;2.53;;;;;;;13.13;85.22;154731.53;5070411;28;20924;-77
2023/03/24 03:23:41;;;;;;;2.10;1.90;;;;;;;13.09;85.42;154722.44;5063518;28;20501;-77
2023/03/24 03:26:15;;;;;;;4.20;2.60;;;;;;;13.10;84.26;154725.06;5084140;28;20460;-76
2023/03/24 03:28:48;;;;;;;2.43;2.20;;;;;;;13.12;85.63;154730.22;5057205;28;20445;-76
2023/03/24 03:31:20;;;;;;;2.70;2.40;;;;;;;13.06;85.42;154714.59;5043502;28;20450;-76
2023/03/24 03:33:52;;;;;;;2.33;2.00;;;;;;;13.06;84.76;154714.59;5046692;28;20497;-76
2023/03/24 03:36:23;;;;;;;2.10;1.90;;;;;;;13.03;83.64;154706.81;5073447;28;20450;-76
2023/03/24 03:38:55;;;;;;;2.97;2.17;;;;;;;13.05;84.96;154710.72;5059870;28;20596;-76
2023/03/24 03:41:24;;;;;;;2.77;2.17;;;;;;;13.08;85.53;154719.81;5089627;28;20438;-76
2023/03/24 03:43:52;;;;;;;2.40;2.00;;;;;;;13.06;85.20;154714.59;5067173;28;20469;-76
2023/03/24 03:46:19;;;;;;;2.93;2.23;;;;;;;13.07;83.04;154717.25;5069539;28;20456;-77
2023/03/24 03:48:47;;;;;;;2.47;2.10;;;;;;;13.09;83.13;154721.13;5056354;28;20447;-76
2023/03/24 03:51:15;;;;;;;4.13;2.50;;;;;;;13.18;84.88;154744.50;5061228;28;20538;-76
2023/03/24 03:53:51;;;;;;;2.33;1.73;;;;;;;13.12;82.51;154730.22;5060579;28;20802;-76
2023/03/24 03:56:20;;;;;;;2.80;2.20;;;;;;;13.15;83.83;154738.03;5034020;28;20453;-76
2023/03/24 03:58:59;;;;;;;2.60;2.00;;;;;;;13.14;79.76;154734.09;5064311;28;20784;-76
2023/03/24 04:01:28;;;;;;;3.10;2.50;;;;;;;13.17;79.33;154741.91;5072668;28;20444;-76
2023/03/24 04:04:59;;;;;;;3.00;1.90;;;;;;;13.21;81.69;154753.56;5045804;28;20469;-76
2023/03/24 04:08:14;;;;;;;2.50;2.23;;;;;;;13.23;79.93;154757.47;5045179;28;20800;-76
2023/03/24 04:11:14;;;;;;;3.23;2.53;;;;;;;13.21;81.57;154753.56;5057334;28;20453;-76
2023/03/24 04:14:23;;;;;;;2.83;2.17;;;;;;;13.17;84.08;154743.22;5095409;28;20469;-77
2023/03/24 04:17:14;;;;;;;3.37;2.57;;;;;;;13.09;82.09;154722.44;5075309;28;20532;-76
2023/03/24 04:19:54;;;;;;;3.00;2.40;;;;;;;13.12;85.45;154728.94;5040308;28;20544;-76
2023/03/24 04:22:25;;;;;;;3.30;2.13;;;;;;;13.10;86.97;154725.06;5076205;28;20468;-76
2023/03/24 04:25:14;;;;;;;2.80;2.10;;;;;;;13.04;84.50;154709.44;5065778;28;21012;-76
2023/03/24 04:27:45;;;;;;;5.27;2.20;;;;;;;13.03;86.70;154705.50;5052875;28;20456;-76
2023/03/24 04:30:17;;;;;;;3.00;2.50;;;;;;;13.01;83.15;154701.63;5058762;28;20504;-77
2023/03/24 04:32:48;;;;;;;2.57;2.10;;;;;;;13.10;81.51;154723.75;5063530;28;20537;-76
2023/03/24 04:35:30;;;;;;;3.40;2.30;;;;;;;13.14;80.13;154734.09;5073025;28;20476;-76
2023/03/24 04:38:22;;;;;;;3.30;2.17;;;;;;;13.11;80.91;154726.31;5076285;28;20453;-76
2023/03/24 04:40:56;;;;;;;3.07;2.10;;;;;;;13.13;84.39;154732.78;5063676;28;20433;-76
2023/03/24 04:43:26;;;;;;;3.37;2.87;;;;;;;13.09;84.96;154722.44;5051965;28;20461;-76
2023/03/24 04:45:56;;;;;;;2.23;2.03;;;;;;;13.09;87.71;154722.44;5068059;28;20450;-76
2023/03/24 04:48:49;;;;;;;2.90;2.20;;;;;;;13.05;84.52;154712.00;5080751;28;20461;-76
2023/03/24 04:51:25;;;;;;;2.50;2.03;;;;;;;13.13;85.01;154732.78;5059286;28;20466;-76
2023/03/24 04:54:01;;;;;;;2.33;1.90;;;;;;;13.11;86.41;154727.63;5063064;28;20437;-76
2023/03/24 04:56:31;;;;;;;2.67;2.10;;;;;;;13.14;85.42;154734.09;5065668;28;20556;-76
2023/03/24 04:59:05;;;;;;;4.83;2.10;;;;;;;13.14;87.17;154735.41;5052499;28;20532;-76
2023/03/24 05:01:36;;;;;;;3.00;2.00;;;;;;;13.14;84.56;154734.09;5056624;28;20457;-76
2023/03/24 05:04:29;;;;;;;2.97;2.67;;;;;;;13.13;85.86;154732.78;5073000;28;20485;-76
2023/03/24 05:07:02;;;;;;;4.50;2.70;;;;;;;13.15;85.96;154738.03;5081445;28;20951;-76
2023/03/24 05:09:30;;;;;;;3.47;2.30;;;;;;;13.12;86.89;154730.22;5089633;28;20828;-76
2023/03/24 05:11:58;;;;;;;2.83;2.30;;;;;;;13.11;84.02;154726.31;5066769;28;20442;-76
2023/03/24 05:14:25;;;;;;;2.53;2.33;;;;;;;13.12;88.35;154728.94;5077224;28;20427;-76
2023/03/24 05:16:55;;;;;;;2.50;2.13;;;;;;;13.12;88.12;154728.94;5078051;28;20464;-76
2023/03/24 05:19:23;;;;;;;1.93;1.73;;;;;;;13.12;87.51;154730.22;5076687;28;20437;-76
2023/03/24 05:21:50;;;;;;;2.43;2.10;;;;;;;13.13;87.45;154731.53;5070312;28;20457;-76
2023/03/24 05:24:17;;;;;;;3.43;2.17;;;;;;;13.17;86.86;154741.91;5072285;28;20477;-76
2023/03/24 05:26:44;;;;;;;2.53;2.00;;;;;;;13.22;87.59;154756.19;5084354;28;20965;-77
2023/03/24 05:29:15;;;;;;;2.80;1.97;;;;;;;13.22;87.33;154754.88;5086868;28;20489;-76
2023/03/24 05:31:43;;;;;;;2.70;2.20;;;;;;;13.22;89.37;154756.19;5079290;28;20944;-76
2023/03/24 05:34:16;;;;;;;2.40;2.13;;;;;;;13.29;90.23;154773.06;5055464;28;20457;-76
2023/03/24 05:37:02;;;;;;;3.43;2.30;;;;;;;13.29;92.23;154774.31;5061337;28;20516;-76
2023/03/24 05:39:28;;;;;;;3.30;2.43;;;;;;;13.24;93.57;154760.03;5074717;28;20468;-76
2023/03/24 05:42:06;;;;;;;2.40;2.10;;;;;;;13.25;93.93;154763.97;5071169;28;20453;-76
2023/03/24 05:44:33;;;;;;;2.87;2.10;;;;;;;13.18;96.21;154745.81;5060482;28;20812;-76
2023/03/24 05:47:11;;;;;;;3.50;2.50;;;;;;;13.13;96.67;154731.53;5058938;28;20524;-77
2023/03/24 05:49:39;;;;;;;2.80;2.50;;;;;;;13.09;98.36;154722.44;5083030;28;20544;-77
2023/03/24 05:52:07;;;;;;;3.97;2.67;;;;;;;13.09;98.51;154721.13;5075549;28;20438;-77
2023/03/24 05:54:35;;;;;;;3.10;2.80;;;;;;;13.04;100.00;154709.44;5041134;28;20438;-76
2023/03/24 05:57:15;;;;;;;2.60;2.20;;;;;;;12.97;100.00;154691.28;5052983;28;20435;-78
2023/03/24 06:00:05;;;;;;;3.10;2.50;;;;;;;12.93;100.00;154680.88;5066574;28;20446;-86
2023/03/24 06:02:41;;;;;;;3.50;2.70;;;;;;;12.91;100.00;154674.41;5078629;28;20488;-86
2023/03/24 06:05:23;;;;;;;3.40;2.40;;;;;;;12.90;100.00;154673.09;5070378;28;20620;-86
2023/03/24 06:07:50;;;;;;;3.87;2.80;;;;;;;12.86;100.00;154662.72;5089857;28;20537;-86
2023/03/24 06:10:17;;;;;;;3.33;2.87;;;;;;;12.86;100.00;154661.44;5099485;28;20453;-86
2023/03/24 06:12:49;;;;;;;4.17;2.93;;;;;;;12.85;100.00;154660.13;5087250;28;20541;-85
2023/03/24 06:15:16;;;;;;;3.73;3.20;;;;;;;12.82;100.00;154652.31;5108084;27;20572;-86
2023/03/24 06:17:45;;;;;;;3.63;3.33;;;;;;;12.80;100.00;154647.16;5080880;28;20448;-86
2023/03/24 06:20:25;;;;;;;3.90;3.50;;;;;;;12.80;100.00;154647.16;5068464;28;20448;-86
2023/03/24 06:23:15;;;;;;;3.50;2.90;;;;;;;12.76;100.00;154636.81;5104963;28;20444;-85
2023/03/24 06:26:01;;;;;;;3.10;2.80;;;;;;;12.78;100.00;154643.28;5108671;28;20455;-85
2023/03/24 06:28:33;;;;;;;4.40;3.60;;;;;;;12.79;100.00;154644.53;5081046;28;20449;-85
2023/03/24 06:31:04;;;;;;;3.00;2.60;;;;;;;12.80;100.00;154647.16;5084835;28;20521;-86
2023/03/24 06:33:35;;;;;;;6.60;3.47;;;;;;;12.78;100.00;154641.97;5066203;28;20452;-85
2023/03/24 06:36:06;;;;;;;3.47;3.17;;;;;;;12.78;100.00;154641.97;5085103;28;20797;-85
2023/03/24 06:38:33;;;;;;;4.43;3.60;;;;;;;12.77;100.00;154640.66;5088632;28;20453;-85
2023/03/24 06:41:00;;;;;;;5.37;3.70;;;;;;;12.80;100.00;154647.16;5085366;28;20531;-85
2023/03/24 06:43:27;;;;;;;4.10;3.53;;;;;;;12.82;100.00;154653.63;5085623;28;20560;-85
2023/03/24 06:45:54;;;;;;;4.83;3.90;;;;;;;12.78;100.00;154641.97;5073579;28;20448;-85
2023/03/24 06:48:23;;;;;;;3.80;3.40;;;;;;;12.73;100.00;154629.00;5087452;28;20433;-85
2023/03/24 06:50:54;;;;;;;4.20;3.73;;;;;;;12.71;100.00;154623.78;5071759;28;20455;-85
2023/03/24 06:53:22;;;;;;;4.03;3.00;;;;;;;12.72;100.00;154627.72;5105431;28;20444;-85
2023/03/24 06:55:49;;;;;;;4.07;3.67;;;;;;;12.75;100.00;154635.50;5086120;28;20452;-85
2023/03/24 06:58:16;;;;;;;4.53;3.90;;;;;;;12.76;100.00;154638.06;5082201;27;20449;-85
2023/03/24 07:01:00;;;;;;;7.17;3.90;;;;;;;12.75;100.00;154634.19;5071926;28;20452;-85
2023/03/24 07:03:32;;;;;;;3.87;3.10;;;;;;;12.74;100.00;154631.56;5071297;28;20523;-85
2023/03/24 07:06:19;;;;;;;4.30;3.27;;;;;;;12.76;100.00;154636.81;5086385;28;20593;-85
2023/03/24 07:08:51;;;;;;;7.40;3.63;;;;;;;12.75;100.00;154634.19;5079580;28;20491;-85
2023/03/24 07:11:20;;;;;;;4.77;3.73;;;;;;;12.74;100.00;154632.88;5102206;28;20987;-85
2023/03/24 07:13:51;;;;;;;4.33;3.83;;;;;;;12.75;100.00;154634.19;5071205;28;20521;-85
2023/03/24 07:16:18;;;;;;;4.10;3.70;;;;;;;12.74;100.00;154632.88;5087987;28;20480;-85
2023/03/24 07:18:48;;;;;;;4.83;4.13;;;;;;;12.75;100.00;154635.50;5081550;28;20460;-86
2023/03/24 07:21:15;;;;;;;4.27;3.40;;;;;;;12.74;100.00;154631.56;5088101;28;20440;-85
2023/03/24 07:23:42;;;;;;;3.67;3.10;;;;;;;12.73;100.00;154630.28;5102036;28;20449;-86
2023/03/24 07:26:22;;;;;;;4.80;3.90;;;;;;;12.72;100.00;154626.41;5070377;28;20543;-86
2023/03/24 07:29:04;;;;;;;4.57;3.77;;;;;;;12.69;100.00;154618.63;5069446;28;20444;-86
2023/03/24 07:31:47;;;;;;;4.73;3.40;;;;;;;12.67;100.00;154613.44;5084357;28;20456;-85
2023/03/24 07:34:14;;;;;;;5.00;3.87;;;;;;;12.67;100.00;154613.44;5080292;28;20642;-85
2023/03/24 07:36:41;;;;;;;4.40;3.80;;;;;;;12.66;100.00;154612.13;5080173;28;20456;-85
2023/03/24 07:39:13;;;;;;;5.20;4.20;;;;;;;12.63;100.00;154603.03;5069584;28;20490;-86
2023/03/24 07:41:41;;;;;;;4.53;3.53;;;;;;;12.58;100.00;154590.06;5085224;28;20808;-85
2023/03/24 07:44:18;;;;;;;4.23;3.83;;;;;;;12.57;100.00;154587.50;5083361;28;20568;-86
2023/03/24 07:46:49;;;;;;;4.30;3.53;;;;;;;12.56;100.00;154584.91;5088252;28;20448;-85
2023/03/24 07:49:16;;;;;;;4.33;3.80;;;;;;;12.57;100.00;154588.81;5087557;28;20454;-86
2023/03/24 07:51:43;;;;;;;4.77;4.30;;;;;;;12.55;100.00;154582.34;5065148;28;20460;-85
2023/03/24 07:54:31;;;;;;;4.57;3.97;;;;;;;12.53;100.00;154577.09;5100048;28;20455;-85
2023/03/24 07:57:00;;;;;;;5.10;3.57;;;;;;;12.56;100.00;154584.91;5089085;28;20440;-85
2023/03/24 07:59:27;;;;;;;4.43;4.00;;;;;;;12.56;100.00;154584.91;5087436;28;20535;-86
2023/03/24 08:02:05;;;;;;;4.70;4.20;;;;;;;12.55;100.00;154582.34;5099942;28;20506;-85
2023/03/24 08:04:58;;;;;;;5.67;4.00;;;;;;;12.54;100.00;154579.72;5059876;28;21135;-85
2023/03/24 08:07:49;;;;;;;8.37;3.67;;;;;;;12.55;100.00;154582.34;5061894;28;20484;-85
2023/03/24 08:10:16;;;;;;;4.87;3.87;;;;;;;12.49;100.00;154568.06;5078313;28;20458;-85
2023/03/24 08:12:44;;;;;;;4.80;4.20;;;;;;;12.51;100.00;154573.25;5067749;28;20944;-85
2023/03/24 08:15:11;;;;;;;4.97;4.17;;;;;;;12.49;100.00;154566.75;5082831;28;20797;-85
2023/03/24 08:17:39;;;;;;;6.47;4.00;;;;;;;12.54;100.00;154579.72;5081011;28;21564;-86
2023/03/24 08:20:08;;;;;;;4.97;3.97;;;;;;;12.57;100.00;154588.81;5058320;28;20450;-85
2023/03/24 08:22:35;;;;;;;4.50;4.10;;;;;;;12.57;100.00;154587.50;5067146;28;20446;-85
2023/03/24 08:25:02;;;;;;;5.50;4.30;;;;;;;12.60;100.00;154595.28;5076274;28;20840;-83
2023/03/24 08:27:29;;;;;;;6.33;4.20;;;;;;;12.65;100.00;154608.25;5069806;28;20449;-84
2023/03/24 08:29:57;;;;;;;4.67;4.27;;;;;;;12.63;100.00;154604.34;5064423;28;20461;-84
2023/03/24 08:32:24;;;;;;;5.13;4.63;;;;;;;12.62;100.00;154600.47;5082796;28;20542;-84
2023/03/24 08:34:50;;;;;;;6.37;4.80;;;;;;;12.62;100.00;154601.78;5068757;28;20458;-84
2023/03/24 08:37:17;;;;;;;4.80;4.20;;;;;;;12.67;100.00;154613.44;5071591;28;20458;-84
2023/03/24 08:39:43;;;;;;;5.20;4.67;;;;;;;12.67;100.00;154614.75;5050474;28;20452;-84
2023/03/24 08:42:10;;;;;;;5.30;4.13;;;;;;;12.64;100.00;154606.94;5078374;28;20504;-83
2023/03/24 08:44:37;;;;;;;5.80;4.70;;;;;;;12.68;100.00;154617.31;5086923;28;20748;-78
2023/03/24 08:47:05;;;;;;;4.50;4.10;;;;;;;12.69;100.00;154618.63;5077500;28;20555;-78
2023/03/24 08:49:32;;;;;;;4.90;4.50;;;;;;;12.69;100.00;154618.63;5083267;28;20511;-78
2023/03/24 08:51:58;;;;;;;4.70;3.97;;;;;;;12.76;100.00;154636.81;5086565;28;20834;-78
2023/03/24 08:54:25;;;;;;;4.60;4.13;;;;;;;12.77;100.00;154639.38;5056811;28;20740;-78
2023/03/24 08:56:52;;;;;;;3.77;3.30;;;;;;;12.80;100.00;154647.16;5077246;28;20885;-78
2023/03/24 08:59:19;;;;;;;3.40;3.10;;;;;;;12.82;100.00;154652.31;5060704;28;20459;-78
2023/03/24 09:01:45;;;;;;;4.00;3.40;;;;;;;12.82;100.00;154653.63;5044736;28;20536;-78
2023/03/24 09:04:13;;;;;;;3.90;3.50;;;;;;;12.89;100.00;154670.53;5058061;28;20446;-78
2023/03/24 09:06:40;;;;;;;4.00;3.60;;;;;;;12.92;100.00;154678.25;5063963;28;20765;-78
2023/03/24 09:09:07;;;;;;;3.67;3.30;;;;;;;12.93;100.00;154680.88;5084182;28;20971;-78
2023/03/24 09:11:34;;;;;;;4.57;4.17;;;;;;;12.94;100.00;154682.19;5084469;28;20455;-79
2023/03/24 09:14:00;;;;;;;4.30;3.90;;;;;;;12.96;100.00;154688.66;5104862;28;20515;-78
2023/03/24 09:16:27;;;;;;;4.90;4.40;;;;;;;12.97;100.00;154691.28;5087709;28;20970;-78
2023/03/24 09:18:54;;;;;;;5.03;4.53;;;;;;;12.98;100.00;154693.84;5093515;28;20448;-78
2023/03/24 09:21:22;;;;;;;4.20;3.80;;;;;;;13.04;100.00;154709.44;5090767;28;20488;-77
2023/03/24 09:23:48;;;;;;;4.70;3.93;;;;;;;13.08;100.00;154719.81;5102965;28;20541;-78
2023/03/24 09:26:15;;;;;;;4.60;3.53;;;;;;;13.08;100.00;154719.81;5105641;28;20469;-78
2023/03/24 09:28:42;;;;;;;3.70;3.40;;;;;;;13.12;100.00;154730.22;5103279;28;21110;-78
2023/03/24 09:31:08;;;;;;;3.70;3.00;;;;;;;13.19;100.00;154748.38;5104330;28;21041;-78
2023/03/24 09:33:35;;;;;;;4.43;4.00;;;;;;;13.21;100.00;154753.56;5093019;28;20440;-78
2023/03/24 09:36:03;;;;;;;4.00;3.57;;;;;;;13.23;100.00;154758.78;5088966;27;20452;-78
2023/03/24 09:38:33;;;;;;;5.53;3.57;;;;;;;13.26;100.00;154766.53;5095261;28;20981;-78
2023/03/24 09:41:01;;;;;;;4.43;3.70;;;;;;;13.30;100.00;154776.94;5091897;28;20467;-78
2023/03/24 09:43:33;;;;;;;5.20;3.87;;;;;;;13.33;100.00;154784.72;5105783;28;20453;-78
2023/03/24 09:46:01;;;;;;;4.10;3.50;;;;;;;13.38;100.00;154797.69;5083400;28;20468;-78
2023/03/24 09:48:34;;;;;;;4.20;3.73;;;;;;;13.47;100.00;154818.47;5099878;28;20472;-78
2023/03/24 09:51:05;;;;;;;4.80;4.20;;;;;;;13.56;100.00;154843.09;5101024;28;20456;-78
2023/03/24 09:53:37;;;;;;;3.43;3.13;;;;;;;13.62;100.00;154858.69;5101990;28;20449;-77
2023/03/24 09:56:12;;;;;;;3.40;2.70;;;;;;;13.66;100.00;154869.06;5106238;27;20453;-78
2023/03/24 09:58:40;;;;;;;3.67;3.37;;;;;;;13.72;100.00;154884.63;5070811;28;20448;-78
2023/03/24 10:01:13;;;;;;;3.60;3.03;;;;;;;13.78;100.00;154898.91;5091219;28;20487;-78
2023/03/24 10:03:39;;;;;;;3.30;2.83;;;;;;;13.87;100.00;154922.31;5093215;28;20925;-78
2023/03/24 10:06:09;;;;;;;3.20;2.73;;;;;;;14.01;100.00;154958.63;5083280;28;20476;-86
2023/03/24 10:08:41;;;;;;;4.17;3.50;;;;;;;14.09;100.00;154978.09;5093358;28;20577;-85
2023/03/24 10:11:15;;;;;;;3.30;3.00;;;;;;;14.16;100.00;154997.59;5109299;28;20461;-85
2023/03/24 10:13:50;;;;;;;3.20;2.90;;;;;;;14.26;100.00;155023.56;5087381;28;20926;-85
2023/03/24 10:16:21;;;;;;;3.27;2.97;;;;;;;14.41;100.00;155062.56;5107120;28;21011;-85
2023/03/24 10:18:52;;;;;;;2.90;2.50;;;;;;;14.48;100.00;155080.72;5106893;28;20614;-85
2023/03/24 10:21:21;;;;;;;5.00;2.80;;;;;;;14.47;100.00;155076.84;5109450;28;20555;-85
2023/03/24 10:23:54;;;;;;;3.23;2.93;;;;;;;14.52;100.00;155089.84;5102173;27;20465;-85
2023/03/24 10:26:29;;;;;;;2.83;2.50;;;;;;;14.54;100.00;155096.31;5087265;28;20473;-85
2023/03/24 10:29:05;;;;;;;2.80;2.40;;;;;;;14.67;100.00;155128.78;5109277;27;20440;-85
2023/03/24 10:31:34;;;;;;;2.40;2.20;;;;;;;14.75;100.00;155149.56;5086235;28;20458;-85
2023/03/24 10:34:01;;;;;;;2.33;2.13;;;;;;;14.79;100.00;155158.69;5089683;28;20445;-86
2023/03/24 10:36:29;;;;;;;2.50;1.90;;;;;;;14.77;100.00;155153.50;5089325;28;20507;-85
2023/03/24 10:38:57;;;;;;;2.23;1.70;;;;;;;14.86;100.00;155176.84;5092834;28;20948;-85
2023/03/24 10:41:26;;;;;;;2.43;2.03;;;;;;;14.88;99.05;155183.34;5085396;28;20456;-85
2023/03/24 10:43:55;;;;;;;2.63;2.20;;;;;;;15.01;100.00;155215.88;5072320;28;20446;-85
2023/03/24 10:46:24;;;;;;;2.23;1.93;;;;;;;14.94;98.88;155198.94;5107887;27;20491;-86
2023/03/24 10:48:53;;;;;;;1.90;1.37;;;;;;;14.88;98.10;155182.09;5108797;28;20435;-85
2023/03/24 10:51:21;;;;;;;2.53;1.53;;;;;;;14.83;98.03;155169.06;5084636;28;20445;-85
2023/03/24 10:53:49;;;;;;;1.90;1.53;;;;;;;14.88;98.97;155182.09;5092661;28;20450;-85
2023/03/24 10:56:18;;;;;;;1.53;1.23;;;;;;;14.87;98.71;155179.47;5092439;28;20490;-86
2023/03/24 10:58:46;;;;;;;1.97;1.20;;;;;;;14.91;98.07;155191.16;5084474;28;20440;-86
2023/03/24 11:01:24;;;;;;;1.60;1.30;;;;;;;14.86;96.86;155176.84;5089961;28;20455;-85
2023/03/24 11:03:51;;;;;;;1.97;1.37;;;;;;;14.84;95.24;155171.66;5086899;28;20811;-86
2023/03/24 11:06:20;;;;;;;2.20;1.60;;;;;;;14.88;96.95;155182.09;5108945;28;20822;-86
2023/03/24 11:08:47;;;;;;;1.77;1.40;;;;;;;14.86;98.44;155176.84;5082254;28;20481;-86
2023/03/24 11:11:15;;;;;;;2.17;1.70;;;;;;;14.87;97.04;155180.78;5088734;28;20460;-86
2023/03/24 11:13:54;;;;;;;2.80;1.90;;;;;;;14.94;95.71;155197.66;5103566;28;20458;-86
2023/03/24 11:16:27;;;;;;;1.70;1.40;;;;;;;14.99;95.09;155210.63;5090424;28;20543;-86
2023/03/24 11:18:59;;;;;;;1.80;1.50;;;;;;;15.06;95.07;155230.09;5107285;28;20438;-86
2023/03/24 11:21:26;;;;;;;1.90;1.60;;;;;;;15.13;92.93;155247.03;5071892;28;20852;-86
2023/03/24 11:23:53;;;;;;;2.47;1.57;;;;;;;15.20;90.77;155265.19;5081552;28;20471;-78
2023/03/24 11:26:22;;;;;;;2.00;1.50;;;;;;;15.35;94.58;155302.91;5068153;28;20475;-78
2023/03/24 11:28:53;;;;;;;1.73;1.50;;;;;;;15.35;93.20;155302.91;5084879;28;20564;-78
2023/03/24 11:31:24;;;;;;;2.80;1.33;;;;;;;15.40;92.47;155315.91;5086888;28;20490;-78
2023/03/24 11:33:56;;;;;;;1.80;1.30;;;;;;;15.46;87.56;155332.81;5103589;28;20513;-78
2023/03/24 11:36:44;;;;;;;2.20;1.30;;;;;;;15.49;88.81;155340.63;5070272;28;20487;-78
2023/03/24 11:39:13;;;;;;;1.30;1.20;;;;;;;15.45;87.93;155330.19;5105941;27;20442;-78
2023/03/24 11:41:43;;;;;;;2.30;1.60;;;;;;;15.45;89.27;155330.19;5079508;28;20442;-78
2023/03/24 11:44:21;;;;;;;1.80;1.00;;;;;;;15.42;86.42;155321.09;5106680;28;20451;-78